This is the latest recevied weather packets stored in our database for station/object LZ0VRC-10. If no packets are shown the sender has not sent any weather packets the latest 10 day(s).
| Time | Temp. | Humidity | Pressure | Rain* | Wind** | Luminosity | Snow |
|---|---|---|---|---|---|---|---|
| 1777300126 | 23.89° C | 25% | 1020.5 hPa | - | - | - | - |
| 1777300118 | 23.89° C | 25% | 1020.5 hPa | - | - | - | - |
| 1777299223 | 22.22° C | 27% | 1020.7 hPa | - | - | - | - |
| 1777299218 | 22.22° C | 27% | 1020.7 hPa | - | - | - | - |
| 1777298318 | 23.33° C | 25% | 1020.8 hPa | - | - | - | - |
| 1777297423 | 21.11° C | 28% | 1021.1 hPa | - | - | - | - |
| 1777297418 | 21.11° C | 28% | 1021.1 hPa | - | - | - | - |
| 1777296518 | 22.22° C | 27% | 1021.3 hPa | - | - | - | - |
| 1777295623 | 22.78° C | 25% | 1021.7 hPa | - | - | - | - |
| 1777295618 | 22.78° C | 25% | 1021.7 hPa | - | - | - | - |
| 1777294718 | 23.89° C | 24% | 1021.9 hPa | - | - | - | - |
| 1777293823 | 21.11° C | 28% | 1022.1 hPa | - | - | - | - |
| 1777293818 | 21.11° C | 28% | 1022.1 hPa | - | - | - | - |
| 1777292918 | 22.78° C | 26% | 1022.3 hPa | - | - | - | - |
| 1777292023 | 22.22° C | 26% | 1022.5 hPa | - | - | - | - |
| 1777292018 | 22.22° C | 26% | 1022.5 hPa | - | - | - | - |
| 1777291118 | 22.22° C | 26% | 1022.7 hPa | - | - | - | - |
| 1777290223 | 21.11° C | 28% | 1022.9 hPa | - | - | - | - |
| 1777290218 | 21.11° C | 28% | 1022.9 hPa | - | - | - | - |
| 1777289318 | 20.56° C | 28% | 1023.1 hPa | - | - | - | - |
| 1777288423 | 18.89° C | 31% | 1023.2 hPa | - | - | - | - |
| 1777288418 | 18.89° C | 31% | 1023.2 hPa | - | - | - | - |
| 1777287526 | 18.89° C | 31% | 1023.3 hPa | - | - | - | - |
| 1777287518 | 18.89° C | 31% | 1023.3 hPa | - | - | - | - |
| 1777286623 | 18.89° C | 31% | 1023.5 hPa | - | - | - | - |
* Rain since midnight (hover to see other rain measurements)
** Current wind speed in m/s (hover to see current wind gust speed)